Carbondale, Kentucky
Current Conditions -  °F | °C
As of 11:55 AM on Thursday 30 Oct 2014 (Local Time) from K2I0 Reporting Station
Clear Clear  
Wind Chill: 57°   Ceiling: Unl
Heat Index: 57°   Visibility: 10mi
Dew Point: 40°   Wind: 0mph
Humidity: 52%   Direction: NA
Pressure: 30.16"   Gusts: NA
Location:  37.196°N, 87.6728°W
Report Text: K2I0 301655Z AUTO 00000KT 10SM CLR 14/04 A3016 RMK AO2 T01390043
Loading
Personal Weather Stations






























Interactive Weather Map
Tropical Storm Tracking
New forecast layout! Learn more

10-Day Weather Forecast

Advertisements
Track Severe Weather on mobile